Time;durP1;ratioP1;P1;durP2;ratioP2;P2;SDS_P1;SDS_P2;PMS_P1;PMS_P2;Temp;Humidity;BMP_temperature;BMP_pressure;BME280_temperature;BME280_humidity;BME280_pressure;Samples;Min_cycle;Max_cycle;Signal;HPM_P1;HPM_P2
2021/09/06 00:02:15;;;;;;;6.75;3.58;;;;;;;11.48;62.40;101566.11;1748204;82;20998;-76
2021/09/06 00:04:41;;;;;;;10.70;3.65;;;;;;;11.44;62.46;101554.03;1759117;80;21085;-76
2021/09/06 00:07:07;;;;;;;7.25;3.25;;;;;;;11.42;62.52;101558.70;1778833;80;21507;-76
2021/09/06 00:09:33;;;;;;;8.15;3.72;;;;;;;11.40;62.59;101560.66;1778052;80;22127;-76
2021/09/06 00:11:59;;;;;;;5.72;3.80;;;;;;;11.37;62.62;101559.62;1779062;80;21934;-76
2021/09/06 00:14:25;;;;;;;6.12;3.62;;;;;;;11.34;62.67;101555.91;1778698;80;21034;-76
2021/09/06 00:16:51;;;;;;;8.03;4.00;;;;;;;11.32;62.73;101552.56;1778998;80;21027;-76
2021/09/06 00:19:17;;;;;;;8.68;3.58;;;;;;;11.29;62.77;101550.19;1779298;80;20967;-76
2021/09/06 00:21:43;;;;;;;8.35;4.00;;;;;;;11.28;62.84;101551.16;1768249;80;21069;-76
2021/09/06 00:24:09;;;;;;;7.47;4.17;;;;;;;11.25;62.90;101550.12;1755795;80;21539;-76
2021/09/06 00:26:35;;;;;;;7.90;3.55;;;;;;;11.22;62.93;101548.23;1749151;81;21464;-76
2021/09/06 00:29:01;;;;;;;6.97;3.60;;;;;;;11.19;63.00;101548.53;1749896;80;21645;-76
2021/09/06 00:31:27;;;;;;;6.65;3.87;;;;;;;11.15;63.05;101545.31;1764542;80;20971;-76
2021/09/06 00:33:53;;;;;;;8.40;4.05;;;;;;;11.12;63.12;101543.43;1759147;80;21002;-76
2021/09/06 00:36:19;;;;;;;7.30;3.75;;;;;;;11.11;63.17;101545.25;1749325;80;21163;-76
2021/09/06 00:38:46;;;;;;;4.97;3.05;;;;;;;11.10;63.23;101534.70;1749025;82;21011;-76
2021/09/06 00:41:12;;;;;;;6.53;3.85;;;;;;;11.09;63.30;101537.02;1752834;79;20984;-76
2021/09/06 00:43:40;;;;;;;7.78;3.87;;;;;;;11.07;63.34;101538.52;1749098;81;21508;-76
2021/09/06 00:46:06;;;;;;;7.62;3.52;;;;;;;11.03;63.41;101542.45;1749089;82;21026;-76
2021/09/06 00:48:33;;;;;;;9.00;3.92;;;;;;;11.03;63.48;101543.30;1748376;82;21059;-76
2021/09/06 00:50:59;;;;;;;7.10;3.90;;;;;;;11.01;63.55;101534.58;1748947;81;21000;-76
2021/09/06 00:53:25;;;;;;;6.85;3.98;;;;;;;11.00;63.62;101543.59;1749402;80;21538;-76
2021/09/06 00:55:51;;;;;;;7.80;3.67;;;;;;;11.00;63.68;101541.41;1749200;82;21534;-76
2021/09/06 00:58:17;;;;;;;8.03;4.10;;;;;;;10.99;63.75;101540.56;1760970;80;21437;-76
2021/09/06 01:00:43;;;;;;;6.45;3.35;;;;;;;10.97;63.81;101536.38;1767972;80;21109;-76
2021/09/06 01:03:09;;;;;;;7.75;3.58;;;;;;;10.92;63.87;101542.62;1779083;80;20990;-76
2021/09/06 01:05:35;;;;;;;7.20;3.85;;;;;;;10.90;63.92;101540.60;1773357;80;21538;-76
2021/09/06 01:08:01;;;;;;;7.25;4.00;;;;;;;10.91;63.97;101544.93;1768318;80;21553;-76
2021/09/06 01:10:27;;;;;;;8.30;3.90;;;;;;;10.84;64.03;101525.98;1779820;80;21022;-75
2021/09/06 01:12:53;;;;;;;10.15;5.62;;;;;;;10.87;64.11;101535.55;1779738;79;21035;-76
2021/09/06 01:15:20;;;;;;;6.70;4.08;;;;;;;10.86;64.16;101533.86;1779925;80;20963;-75
2021/09/06 01:17:46;;;;;;;12.00;4.37;;;;;;;10.85;64.22;101536.17;1780044;80;21054;-76
2021/09/06 01:20:12;;;;;;;13.25;4.30;;;;;;;10.85;64.28;101535.69;1779828;80;21518;-76
2021/09/06 01:22:38;;;;;;;8.00;4.20;;;;;;;10.85;64.34;101533.50;1749196;82;21034;-76
2021/09/06 01:25:05;;;;;;;7.72;4.37;;;;;;;10.83;64.40;101532.34;1749343;80;20998;-76
2021/09/06 01:27:31;;;;;;;7.50;4.08;;;;;;;10.81;64.43;101526.77;1750708;80;21491;-76
2021/09/06 01:29:57;;;;;;;7.33;3.85;;;;;;;10.80;64.51;101531.78;1749216;80;20987;-76
2021/09/06 01:32:23;;;;;;;8.95;4.40;;;;;;;10.78;64.57;101535.06;1749081;82;20990;-75
2021/09/06 01:34:49;;;;;;;9.18;5.37;;;;;;;10.77;64.65;101529.37;1760266;80;21708;-76
2021/09/06 01:37:16;;;;;;;8.33;4.28;;;;;;;10.76;64.68;101522.38;1779077;80;21190;-76
2021/09/06 01:39:42;;;;;;;8.85;4.25;;;;;;;10.72;64.76;101533.83;1749304;82;21019;-76
2021/09/06 01:42:08;;;;;;;5.92;4.35;;;;;;;10.70;64.80;101526.44;1749258;81;21074;-76
2021/09/06 01:44:34;;;;;;;7.97;4.85;;;;;;;10.68;64.88;101524.42;1749236;81;21055;-76
2021/09/06 01:47:00;;;;;;;7.25;4.47;;;;;;;10.67;64.92;101519.21;1751439;80;20967;-76
2021/09/06 01:49:26;;;;;;;6.78;4.22;;;;;;;10.65;64.99;101523.38;1748819;82;21483;-76
2021/09/06 01:51:52;;;;;;;9.35;4.33;;;;;;;10.65;65.07;101519.86;1777890;80;21580;-76
2021/09/06 01:54:18;;;;;;;6.58;4.35;;;;;;;10.62;65.10;101518.81;1780118;80;20990;-76
2021/09/06 01:56:44;;;;;;;8.43;4.58;;;;;;;10.60;65.16;101519.44;1779853;80;20986;-76
2021/09/06 01:59:10;;;;;;;8.88;3.98;;;;;;;10.59;65.22;101517.77;1777902;80;20999;-76
2021/09/06 02:01:36;;;;;;;8.93;4.42;;;;;;;10.59;65.28;101520.44;1780006;80;22175;-76
2021/09/06 02:04:02;;;;;;;7.08;3.95;;;;;;;10.59;65.35;101515.92;1780091;80;21074;-76
2021/09/06 02:06:28;;;;;;;11.97;5.03;;;;;;;10.58;65.42;101515.59;1779697;80;21452;-76
2021/09/06 02:08:54;;;;;;;9.40;4.33;;;;;;;10.57;65.47;101513.05;1780106;80;21034;-76
2021/09/06 02:11:20;;;;;;;6.55;4.08;;;;;;;10.52;65.54;101512.98;1764808;80;20990;-76
2021/09/06 02:13:47;;;;;;;8.15;4.47;;;;;;;10.49;65.61;101510.61;1756313;80;21145;-76
2021/09/06 02:16:13;;;;;;;6.42;4.17;;;;;;;10.50;65.69;101509.62;1780141;80;20975;-76
2021/09/06 02:18:39;;;;;;;7.75;5.00;;;;;;;10.47;65.72;101511.25;1779823;79;21034;-76
2021/09/06 02:21:05;;;;;;;8.43;3.80;;;;;;;10.45;65.81;101516.36;1780017;80;20998;-76
2021/09/06 02:23:31;;;;;;;8.55;4.62;;;;;;;10.43;65.86;101521.84;1780031;80;21029;-76
2021/09/06 02:25:57;;;;;;;10.70;4.50;;;;;;;10.41;65.89;101520.31;1778840;80;21561;-76
2021/09/06 02:28:23;;;;;;;8.60;4.20;;;;;;;10.38;65.99;101526.75;1761616;80;21488;-76
2021/09/06 02:30:49;;;;;;;9.03;4.25;;;;;;;10.36;66.05;101531.39;1779999;80;21616;-76
2021/09/06 02:33:15;;;;;;;7.72;4.17;;;;;;;10.34;66.09;101536.04;1779962;80;21096;-76
2021/09/06 02:35:41;;;;;;;8.00;4.85;;;;;;;10.32;66.17;101531.81;1779649;80;21022;-76
2021/09/06 02:38:07;;;;;;;7.10;4.40;;;;;;;10.30;66.21;101535.13;1780008;80;21127;-76
2021/09/06 02:40:33;;;;;;;8.03;4.50;;;;;;;10.28;66.28;101532.58;1780009;80;21010;-76
2021/09/06 02:42:59;;;;;;;9.95;5.03;;;;;;;10.23;66.34;101541.51;1762344;80;21035;-76
2021/09/06 02:45:25;;;;;;;10.00;4.10;;;;;;;10.20;66.41;101541.79;1749151;81;21006;-76
2021/09/06 02:47:51;;;;;;;9.05;5.12;;;;;;;10.17;66.50;101544.70;1749243;81;21063;-76
2021/09/06 02:50:17;;;;;;;9.30;4.33;;;;;;;10.15;66.55;101549.34;1749110;81;21431;-76
2021/09/06 02:52:43;;;;;;;10.70;4.78;;;;;;;10.11;66.61;101544.39;1756758;81;21507;-76
2021/09/06 02:55:09;;;;;;;6.97;4.25;;;;;;;10.07;66.68;101545.16;1757226;81;21475;-76
2021/09/06 02:57:35;;;;;;;13.38;5.80;;;;;;;10.02;66.74;101542.94;1759692;80;21060;-76
2021/09/06 03:00:01;;;;;;;13.10;4.92;;;;;;;10.00;66.82;101547.54;1788406;80;21581;-76
2021/09/06 03:02:28;;;;;;;7.78;4.08;;;;;;;9.97;66.87;101545.64;1761618;80;21510;-76
2021/09/06 03:04:55;;;;;;;9.63;5.05;;;;;;;9.92;66.94;101543.38;1787734;80;20987;-76
2021/09/06 03:07:21;;;;;;;7.20;4.37;;;;;;;9.90;67.01;101549.84;1788192;80;20975;-76
2021/09/06 03:09:47;;;;;;;7.30;4.10;;;;;;;9.84;67.09;101545.06;1788267;80;20987;-76
2021/09/06 03:12:13;;;;;;;8.73;4.20;;;;;;;9.82;67.16;101541.67;1788436;80;21458;-76
2021/09/06 03:14:39;;;;;;;6.55;4.10;;;;;;;9.79;67.23;101539.29;1788296;80;21695;-76
2021/09/06 03:17:05;;;;;;;7.70;4.40;;;;;;;9.76;67.31;101542.23;1788451;80;21019;-76
2021/09/06 03:19:31;;;;;;;9.80;4.62;;;;;;;9.74;67.40;101539.72;1788273;80;20970;-76
2021/09/06 03:21:57;;;;;;;6.33;4.37;;;;;;;9.72;67.46;101535.48;1788377;80;20982;-76
2021/09/06 03:24:23;;;;;;;9.33;5.28;;;;;;;9.71;67.51;101533.83;1788338;80;21018;-77
2021/09/06 03:26:49;;;;;;;9.25;4.33;;;;;;;9.71;67.61;101535.16;1788505;80;21068;-76
2021/09/06 03:29:15;;;;;;;11.78;4.60;;;;;;;9.70;67.67;101540.12;1785922;80;20855;-77
2021/09/06 03:31:41;;;;;;;7.83;4.80;;;;;;;9.68;67.76;101532.73;1788704;80;20963;-76
2021/09/06 03:34:07;;;;;;;7.58;4.87;;;;;;;9.67;67.82;101537.73;1788613;80;21495;-77
2021/09/06 03:36:33;;;;;;;8.78;4.37;;;;;;;9.65;67.87;101533.86;1788408;80;21033;-76
2021/09/06 03:38:59;;;;;;;11.28;4.85;;;;;;;9.62;67.96;101538.13;1788615;80;21136;-77
2021/09/06 03:41:25;;;;;;;11.88;4.70;;;;;;;9.64;68.04;101533.50;1786703;80;21475;-77
2021/09/06 03:43:52;;;;;;;8.95;4.97;;;;;;;9.65;68.10;101531.69;1757168;81;21278;-76
2021/09/06 03:46:18;;;;;;;10.30;5.10;;;;;;;9.64;68.14;101536.16;1756998;81;20995;-76
2021/09/06 03:48:44;;;;;;;10.93;4.15;;;;;;;9.65;68.21;101537.01;1767128;80;20978;-77
2021/09/06 03:51:10;;;;;;;8.58;4.47;;;;;;;9.67;68.27;101540.40;1784548;79;21128;-76
2021/09/06 03:53:36;;;;;;;9.13;4.95;;;;;;;9.69;68.31;101539.76;1749220;82;20987;-76
2021/09/06 03:56:02;;;;;;;8.70;4.85;;;;;;;9.71;68.38;101538.64;1749590;81;21550;-75
2021/09/06 03:58:28;;;;;;;6.40;4.17;;;;;;;9.71;68.43;101545.81;1749412;80;20998;-76
2021/09/06 04:00:54;;;;;;;8.20;4.47;;;;;;;9.71;68.48;101539.16;1749342;82;20962;-76
2021/09/06 04:03:20;;;;;;;6.70;4.12;;;;;;;9.72;68.52;101535.48;1749309;82;21078;-76
2021/09/06 04:05:46;;;;;;;6.87;3.85;;;;;;;9.71;68.59;101536.48;1749112;82;21455;-75
2021/09/06 04:08:12;;;;;;;8.33;4.42;;;;;;;9.69;68.62;101526.44;1749292;81;21022;-76
2021/09/06 04:10:38;;;;;;;6.85;4.45;;;;;;;9.67;68.71;101529.74;1749277;82;20975;-76
2021/09/06 04:13:05;;;;;;;11.50;4.78;;;;;;;9.66;68.77;101532.05;1749063;82;21085;-76
2021/09/06 04:15:31;;;;;;;9.80;4.95;;;;;;;9.62;68.83;101535.47;1774372;80;21044;-76
2021/09/06 04:17:57;;;;;;;8.55;4.37;;;;;;;9.60;68.88;101532.11;1780334;80;21361;-76
2021/09/06 04:20:23;;;;;;;12.20;4.85;;;;;;;9.59;68.93;101537.56;1779998;80;21467;-76
2021/09/06 04:22:49;;;;;;;7.72;5.00;;;;;;;9.58;68.99;101542.52;1780001;80;21589;-76
2021/09/06 04:25:15;;;;;;;9.03;5.22;;;;;;;9.58;69.04;101539.86;1780051;80;21034;-76
2021/09/06 04:27:41;;;;;;;11.60;5.08;;;;;;;9.59;69.09;101548.22;1776637;80;21112;-76
2021/09/06 04:30:07;;;;;;;7.75;4.70;;;;;;;9.60;69.13;101545.43;1749524;81;20995;-76
2021/09/06 04:32:33;;;;;;;10.65;5.33;;;;;;;9.63;69.19;101542.97;1749067;82;21045;-76
2021/09/06 04:34:59;;;;;;;9.78;5.28;;;;;;;9.68;69.23;101552.72;1749395;82;20967;-76
2021/09/06 04:37:26;;;;;;;8.48;4.92;;;;;;;9.70;69.26;101546.30;1749262;81;21031;-75
2021/09/06 04:39:52;;;;;;;10.18;4.95;;;;;;;9.74;69.31;101549.53;1774319;80;21144;-76
2021/09/06 04:42:18;;;;;;;11.55;5.20;;;;;;;9.78;69.35;101552.28;1766395;80;21432;-76
2021/09/06 04:44:44;;;;;;;6.58;4.92;;;;;;;9.83;69.39;101539.38;1749282;81;21649;-76
2021/09/06 04:47:10;;;;;;;7.65;5.37;;;;;;;10.15;69.58;101544.02;1749202;82;20987;-76
2021/09/06 04:49:36;;;;;;;12.18;4.70;;;;;;;11.04;69.72;101542.81;1749138;81;21094;-76
2021/09/06 04:52:03;;;;;;;14.80;5.50;;;;;;;11.89;69.43;101542.60;1749030;81;21193;-76
2021/09/06 04:54:29;;;;;;;6.85;4.17;;;;;;;12.56;69.07;101542.05;1749202;82;21035;-76
2021/09/06 04:56:55;;;;;;;7.45;4.37;;;;;;;13.19;68.77;101537.37;1749436;81;21048;-77
2021/09/06 04:59:22;;;;;;;13.03;4.50;;;;;;;14.00;68.41;101537.16;1773724;80;21539;-77
2021/09/06 05:01:49;;;;;;;11.55;5.03;;;;;;;14.48;67.85;101535.09;1778321;79;21030;-77
2021/09/06 05:04:15;;;;;;;10.28;5.08;;;;;;;14.55;67.29;101524.52;1780046;80;21163;-77
2021/09/06 05:06:41;;;;;;;7.92;3.95;;;;;;;14.72;66.93;101518.63;1779599;80;21011;-77
2021/09/06 05:09:07;;;;;;;10.03;4.78;;;;;;;14.96;66.41;101538.73;1779188;79;21514;-77
2021/09/06 05:11:33;;;;;;;10.55;4.35;;;;;;;15.14;66.05;101529.97;1752656;80;20991;-77
2021/09/06 05:13:59;;;;;;;5.97;4.15;;;;;;;15.68;65.65;101535.03;1780207;80;21385;-77
2021/09/06 05:16:26;;;;;;;7.03;3.62;;;;;;;15.60;64.81;101518.92;1767104;79;22133;-77
2021/09/06 05:18:52;;;;;;;8.85;4.33;;;;;;;15.72;64.29;101535.52;1766275;80;20990;-77
2021/09/06 05:21:18;;;;;;;8.63;3.80;;;;;;;15.82;63.74;101538.82;1756948;80;20975;-77
2021/09/06 05:23:45;;;;;;;11.30;4.55;;;;;;;15.84;63.10;101534.93;1762363;80;21050;-76
2021/09/06 05:26:11;;;;;;;8.08;4.58;;;;;;;15.66;62.27;101540.22;1763140;80;20967;-76
2021/09/06 05:28:37;;;;;;;8.63;4.65;;;;;;;15.26;61.84;101540.70;1758279;80;21973;-76
2021/09/06 05:31:05;;;;;;;9.88;4.28;;;;;;;14.47;61.97;101545.98;1739022;80;21013;-76
2021/09/06 05:33:32;;;;;;;9.33;4.72;;;;;;;13.89;62.12;101524.58;1718214;82;21452;-76
2021/09/06 05:35:58;;;;;;;6.58;4.50;;;;;;;14.15;62.41;101549.44;1749157;82;21550;-76
2021/09/06 05:38:24;;;;;;;10.10;4.42;;;;;;;14.37;62.42;101550.18;1749177;82;20983;-76
2021/09/06 05:40:50;;;;;;;8.98;5.08;;;;;;;14.49;62.39;101552.85;1751078;80;21139;-77
2021/09/06 05:43:16;;;;;;;9.28;4.53;;;;;;;14.56;62.36;101542.81;1750075;79;20998;-78
2021/09/06 05:45:42;;;;;;;10.05;4.47;;;;;;;14.78;62.36;101540.77;1754660;79;21028;-78
2021/09/06 05:48:08;;;;;;;8.85;4.65;;;;;;;14.96;62.24;101541.42;1749276;82;20867;-78
2021/09/06 05:50:34;;;;;;;8.55;4.42;;;;;;;14.99;62.09;101535.70;1765852;80;20983;-78
2021/09/06 05:53:00;;;;;;;9.60;4.42;;;;;;;14.97;61.98;101526.98;1785974;80;21085;-78
2021/09/06 05:55:26;;;;;;;6.45;4.00;;;;;;;14.96;61.79;101530.67;1788292;80;21030;-78
2021/09/06 05:57:52;;;;;;;7.35;4.33;;;;;;;14.77;61.68;101525.69;1788206;80;20949;-78
2021/09/06 06:00:18;;;;;;;12.75;4.67;;;;;;;14.72;61.60;101528.02;1788315;80;20991;-77
2021/09/06 06:02:45;;;;;;;8.28;3.92;;;;;;;15.01;61.58;101533.70;1770867;80;21018;-78
2021/09/06 06:05:11;;;;;;;7.30;4.10;;;;;;;15.22;61.41;101533.98;1757132;81;21460;-78
2021/09/06 06:07:37;;;;;;;9.85;4.42;;;;;;;15.25;61.24;101541.70;1756964;81;21038;-78
2021/09/06 06:10:04;;;;;;;8.55;4.20;;;;;;;15.26;61.11;101531.30;1757340;81;21542;-78
2021/09/06 06:12:30;;;;;;;12.98;4.28;;;;;;;15.04;60.90;101532.52;1756576;81;21026;-78
2021/09/06 06:14:56;;;;;;;7.58;4.12;;;;;;;15.01;60.87;101537.73;1757327;81;21122;-78
2021/09/06 06:17:24;;;;;;;10.03;4.47;;;;;;;14.99;60.70;101531.17;1757239;81;21447;-78
2021/09/06 06:19:51;;;;;;;9.03;4.30;;;;;;;15.13;60.62;101532.31;1756966;81;20975;-77
2021/09/06 06:22:17;;;;;;;8.53;4.62;;;;;;;15.19;60.44;101542.41;1757310;81;20998;-78
2021/09/06 06:24:43;;;;;;;8.50;4.20;;;;;;;15.48;60.41;101548.03;1757019;81;21034;-78
2021/09/06 06:27:09;;;;;;;7.37;3.75;;;;;;;15.53;60.10;101548.02;1757326;81;21483;-77
2021/09/06 06:29:35;;;;;;;6.78;3.50;;;;;;;15.82;59.98;101548.23;1757640;80;21474;-78
2021/09/06 06:32:01;;;;;;;11.63;3.92;;;;;;;16.05;59.78;101553.14;1763652;78;20997;-78
2021/09/06 06:34:27;;;;;;;11.63;3.67;;;;;;;16.17;59.51;101559.81;1785108;80;20986;-78
2021/09/06 06:36:53;;;;;;;4.87;3.42;;;;;;;16.17;59.35;101561.16;1766809;80;21020;-77
2021/09/06 06:39:19;;;;;;;8.93;4.08;;;;;;;16.09;59.13;101557.16;1768575;78;21025;-77
2021/09/06 06:41:46;;;;;;;6.37;3.58;;;;;;;16.14;58.97;101558.83;1777801;80;21158;-77
2021/09/06 06:44:13;;;;;;;7.40;3.27;;;;;;;16.20;58.78;101562.14;1771671;80;21505;-78
2021/09/06 06:46:40;;;;;;;7.95;3.37;;;;;;;16.26;58.56;101558.73;1767597;80;21048;-77
2021/09/06 06:49:06;;;;;;;7.85;3.47;;;;;;;16.38;58.37;101560.00;1778775;80;21081;-78
2021/09/06 06:51:32;;;;;;;10.43;4.05;;;;;;;16.20;57.98;101570.22;1781896;80;21034;-77
2021/09/06 06:53:58;;;;;;;6.25;3.47;;;;;;;16.27;57.89;101570.34;1772193;80;21140;-78
2021/09/06 06:56:24;;;;;;;10.08;3.90;;;;;;;16.37;57.74;101568.25;1776635;80;21472;-78
2021/09/06 06:58:50;;;;;;;11.63;3.70;;;;;;;16.39;57.57;101572.45;1765262;80;20987;-78
2021/09/06 07:01:16;;;;;;;7.80;3.75;;;;;;;16.69;57.43;101572.08;1773851;80;20917;-79
2021/09/06 07:03:42;;;;;;;6.95;3.90;;;;;;;16.97;57.29;101577.72;1770413;80;21561;-79
2021/09/06 07:06:08;;;;;;;5.05;3.27;;;;;;;16.96;57.00;101580.08;1762127;78;21529;-79
2021/09/06 07:08:34;;;;;;;5.85;3.52;;;;;;;17.01;56.97;101579.03;1760319;78;21477;-78
2021/09/06 07:11:00;;;;;;;9.90;3.62;;;;;;;17.13;56.77;101587.02;1767261;80;21635;-79
2021/09/06 07:13:26;;;;;;;6.47;3.75;;;;;;;17.18;56.62;101585.94;1772500;80;20987;-79
2021/09/06 07:15:52;;;;;;;11.60;3.52;;;;;;;17.25;56.40;101595.47;1758309;80;21057;-79
2021/09/06 07:18:18;;;;;;;7.83;3.20;;;;;;;17.20;56.23;101595.20;1781744;78;21116;-80
2021/09/06 07:20:44;;;;;;;7.55;2.80;;;;;;;17.35;56.15;101599.58;1768098;80;21095;-78
2021/09/06 07:23:10;;;;;;;10.13;3.30;;;;;;;17.31;55.80;101595.57;1777232;78;21034;-78
2021/09/06 07:25:37;;;;;;;6.70;3.15;;;;;;;17.33;55.75;101593.55;1768359;79;21488;-79
2021/09/06 07:28:04;;;;;;;5.62;2.90;;;;;;;17.65;55.62;101594.23;1760630;80;21529;-78
2021/09/06 07:30:30;;;;;;;5.55;3.08;;;;;;;17.88;55.47;101594.94;1776305;80;21141;-79
2021/09/06 07:32:56;;;;;;;6.08;2.80;;;;;;;17.94;55.16;101593.67;1775181;80;21056;-79
2021/09/06 07:35:23;;;;;;;4.65;2.80;;;;;;;17.87;54.91;101595.45;1761100;80;20966;-79
2021/09/06 07:37:50;;;;;;;4.78;3.20;;;;;;;17.72;54.68;101597.86;1779032;80;21518;-79
2021/09/06 07:40:16;;;;;;;4.47;2.62;;;;;;;17.87;54.60;101601.39;1775057;79;21099;-79
2021/09/06 07:42:42;;;;;;;4.67;2.55;;;;;;;18.07;54.41;101597.58;1779345;80;21134;-79
2021/09/06 07:45:09;;;;;;;5.40;3.27;;;;;;;17.92;54.06;101594.39;1770120;80;21054;-79
2021/09/06 07:47:35;;;;;;;5.30;2.80;;;;;;;18.06;53.93;101600.78;1766300;80;21032;-79
2021/09/06 07:50:03;;;;;;;4.45;3.08;;;;;;;17.93;53.57;101596.58;1762131;80;21050;-79
2021/09/06 07:52:30;;;;;;;6.85;2.80;;;;;;;17.85;53.51;101596.67;1777064;80;21502;-78
2021/09/06 07:54:56;;;;;;;3.85;2.60;;;;;;;18.02;53.43;101587.33;1772407;80;21934;-79
2021/09/06 07:57:22;;;;;;;5.70;3.05;;;;;;;17.88;53.04;101589.55;1705428;83;21198;-79
2021/09/06 07:59:48;;;;;;;6.72;2.70;;;;;;;17.70;53.06;101593.14;1746641;82;21067;-78
2021/09/06 08:02:14;;;;;;;4.00;2.52;;;;;;;17.64;52.98;101595.25;1771003;80;21009;-78
2021/09/06 08:04:40;;;;;;;3.75;2.33;;;;;;;17.82;52.94;101588.95;1773537;80;20900;-78
2021/09/06 08:07:06;;;;;;;6.20;2.72;;;;;;;18.00;52.83;101590.75;1776567;80;21006;-79
2021/09/06 08:09:32;;;;;;;5.80;2.77;;;;;;;18.12;52.74;101594.61;1760298;80;21061;-78
2021/09/06 08:11:58;;;;;;;6.90;3.00;;;;;;;17.90;52.40;101589.70;1770183;80;21062;-78
2021/09/06 08:14:24;;;;;;;4.47;2.62;;;;;;;17.97;52.48;101593.83;1772566;80;21050;-77
2021/09/06 08:16:50;;;;;;;5.87;2.87;;;;;;;18.11;52.50;101591.61;1770852;80;21055;-78
2021/09/06 08:19:17;;;;;;;4.10;2.33;;;;;;;18.00;52.30;101596.14;1755281;79;21604;-78
2021/09/06 08:21:43;;;;;;;4.15;2.40;;;;;;;18.13;52.11;101598.16;1764104;80;21070;-78
2021/09/06 08:24:09;;;;;;;2.92;2.10;;;;;;;18.36;52.04;101599.69;1763222;80;21049;-78
2021/09/06 08:26:35;;;;;;;3.65;2.20;;;;;;;18.78;51.85;101594.84;1775021;80;21500;-78
2021/09/06 08:29:01;;;;;;;4.97;2.20;;;;;;;18.97;51.52;101591.97;1763329;80;21049;-78
2021/09/06 08:31:29;;;;;;;4.35;2.20;;;;;;;19.09;51.18;101595.82;1758823;80;21849;-77
2021/09/06 08:33:55;;;;;;;5.28;2.42;;;;;;;19.18;50.95;101600.03;1772448;80;21015;-77
2021/09/06 08:36:21;;;;;;;4.95;2.02;;;;;;;19.40;50.72;101596.25;1773970;80;21117;-77
2021/09/06 08:38:47;;;;;;;4.87;2.35;;;;;;;19.33;50.23;101594.53;1763433;80;21017;-78
2021/09/06 08:41:13;;;;;;;5.20;2.87;;;;;;;19.31;50.02;101593.39;1769357;80;21535;-77
2021/09/06 08:43:39;;;;;;;5.08;2.42;;;;;;;19.55;49.94;101587.21;1764400;80;21242;-77
2021/09/06 08:46:05;;;;;;;5.75;1.85;;;;;;;19.87;49.80;101593.31;1774702;80;21015;-78
2021/09/06 08:48:31;;;;;;;4.20;1.90;;;;;;;20.10;49.65;101603.30;1767331;80;21004;-78
2021/09/06 08:50:57;;;;;;;4.95;1.80;;;;;;;20.14;49.30;101595.08;1776329;80;21100;-78
2021/09/06 08:53:23;;;;;;;3.42;2.00;;;;;;;19.87;48.57;101587.91;1763432;80;21012;-78
2021/09/06 08:55:49;;;;;;;3.92;1.65;;;;;;;19.67;48.33;101598.61;1769090;80;21518;-78
2021/09/06 08:58:18;;;;;;;4.35;1.60;;;;;;;19.55;47.94;101592.63;1738800;80;21053;-78
2021/09/06 09:00:49;;;;;;;6.40;2.02;;;;;;;19.52;47.57;101593.02;1774671;80;21006;-78
2021/09/06 09:03:15;;;;;;;3.30;1.45;;;;;;;19.44;47.33;101604.33;1772618;80;21096;-78
2021/09/06 09:06:04;;;;;;;3.35;1.50;;;;;;;19.50;47.02;101601.33;1774136;80;21074;-78
2021/09/06 09:08:31;;;;;;;3.90;1.75;;;;;;;19.56;46.89;101592.95;1770486;80;21771;-78
2021/09/06 09:11:04;;;;;;;2.85;2.00;;;;;;;19.55;46.72;101593.98;1774202;79;21037;-77
2021/09/06 09:13:34;;;;;;;6.80;2.37;;;;;;;19.67;46.74;101589.14;1770419;80;20993;-77
2021/09/06 09:16:00;;;;;;;2.83;1.75;;;;;;;19.73;46.60;101591.58;1781414;80;24522;-78
2021/09/06 09:18:30;;;;;;;5.08;2.47;;;;;;;19.76;46.58;101595.23;1784175;80;21054;-78
2021/09/06 09:21:05;;;;;;;;;;;;;;;19.77;46.40;101591.50;1781009;80;21187;-77
2021/09/06 09:23:47;;;;;;;3.58;2.10;;;;;;;19.86;46.44;101599.76;1774888;80;20456;-78
2021/09/06 09:26:13;;;;;;;4.90;1.62;;;;;;;19.72;46.13;101595.31;1770981;80;21723;-78
2021/09/06 09:28:44;;;;;;;4.42;2.52;;;;;;;19.72;45.96;101589.91;1773904;80;20990;-77
2021/09/06 09:31:13;;;;;;;2.85;1.85;;;;;;;19.75;45.94;101597.11;1775496;80;21677;-77
2021/09/06 09:33:49;;;;;;;4.37;2.33;;;;;;;19.73;45.67;101592.94;1780872;80;21053;-77
2021/09/06 09:36:31;;;;;;;10.75;2.65;;;;;;;19.71;45.66;101597.70;1773663;80;21470;-78
2021/09/06 09:39:19;;;;;;;9.88;2.33;;;;;;;19.68;45.52;101599.45;1773007;80;21092;-78
2021/09/06 09:41:49;;;;;;;4.25;1.90;;;;;;;19.66;45.39;101592.91;1775891;80;20975;-77
2021/09/06 09:44:21;;;;;;;4.58;2.40;;;;;;;19.67;45.44;101592.36;1776276;80;26718;-78
2021/09/06 09:46:57;;;;;;;9.38;2.20;;;;;;;19.72;45.42;101591.25;1732285;81;21129;-78
2021/09/06 09:49:24;;;;;;;5.00;1.77;;;;;;;19.96;45.58;101589.38;1761966;80;21026;-78
2021/09/06 09:51:51;;;;;;;4.10;2.17;;;;;;;20.12;45.53;101580.92;1780927;80;21119;-78
2021/09/06 09:54:17;;;;;;;4.90;2.08;;;;;;;20.07;45.34;101595.58;1763912;80;21499;-78
2021/09/06 09:56:44;;;;;;;5.28;2.33;;;;;;;19.86;45.16;101590.28;1756864;80;21069;-78
2021/09/06 09:59:12;;;;;;;3.70;1.92;;;;;;;19.90;45.19;101580.73;1765310;80;21213;-78
2021/09/06 10:01:54;;;;;;;4.60;2.33;;;;;;;20.00;45.11;101576.27;1770007;80;21038;-77
2021/09/06 10:04:25;;;;;;;5.50;2.10;;;;;;;19.98;45.01;101581.91;1754991;80;21006;-78
2021/09/06 10:06:52;;;;;;;4.95;2.12;;;;;;;20.18;45.02;101580.09;1763624;80;21101;-78
2021/09/06 10:09:18;;;;;;;4.03;2.33;;;;;;;20.33;45.00;101575.39;1773395;80;21455;-78
2021/09/06 10:11:44;;;;;;;4.42;2.15;;;;;;;20.33;44.89;101568.61;1776240;80;21768;-78
2021/09/06 10:14:15;;;;;;;6.67;1.92;;;;;;;20.14;44.64;101566.64;1769723;80;21010;-78
2021/09/06 10:16:41;;;;;;;3.40;1.72;;;;;;;20.08;44.55;101563.41;1774982;80;21014;-78
2021/09/06 10:19:09;;;;;;;3.35;2.22;;;;;;;19.99;44.34;101557.83;1749676;80;20942;-77
2021/09/06 10:21:40;;;;;;;2.62;2.00;;;;;;;20.20;44.41;101565.81;1762273;80;21061;-78
2021/09/06 10:24:19;;;;;;;2.30;1.80;;;;;;;20.31;44.38;101555.77;1770845;80;21586;-78
2021/09/06 10:26:46;;;;;;;4.08;2.12;;;;;;;20.37;44.18;101556.30;1755565;80;20994;-77
2021/09/06 10:29:19;;;;;;;4.35;2.25;;;;;;;20.42;44.03;101553.81;1759015;80;21034;-78
2021/09/06 10:32:04;;;;;;;3.40;1.80;;;;;;;20.42;43.86;101554.33;1771063;80;21093;-78
2021/09/06 10:34:30;;;;;;;3.98;2.33;;;;;;;20.47;43.81;101552.37;1766940;80;21042;-77
2021/09/06 10:37:03;;;;;;;3.52;2.00;;;;;;;20.40;43.67;101546.42;1775598;80;21471;-78
2021/09/06 10:39:32;;;;;;;10.03;2.33;;;;;;;20.31;43.46;101552.22;1753196;80;21146;-78
2021/09/06 10:42:05;;;;;;;5.37;2.30;;;;;;;20.38;43.36;101547.13;1757659;80;21011;-78
2021/09/06 10:44:38;;;;;;;3.85;1.40;;;;;;;20.37;43.08;101544.10;1760785;80;21000;-78
2021/09/06 10:47:11;;;;;;;6.35;1.87;;;;;;;20.34;43.01;101537.74;1770219;80;21602;-78
2021/09/06 10:49:43;;;;;;;3.77;2.30;;;;;;;20.24;42.72;101539.15;1759547;80;21223;-78
2021/09/06 10:52:10;;;;;;;4.80;1.77;;;;;;;20.33;42.76;101537.45;1776287;80;21505;-78
2021/09/06 10:54:38;;;;;;;1.80;1.55;;;;;;;20.47;42.70;101536.95;1777520;80;21045;-78
2021/09/06 10:57:07;;;;;;;4.28;2.00;;;;;;;20.57;42.48;101540.59;1763239;80;21010;-78
2021/09/06 10:59:33;;;;;;;4.97;2.08;;;;;;;20.61;42.38;101539.98;1769729;80;21050;-78
2021/09/06 11:01:59;;;;;;;4.95;1.80;;;;;;;20.40;41.65;101538.30;1722315;83;21148;-78
2021/09/06 11:04:30;;;;;;;5.20;1.85;;;;;;;20.26;41.35;101531.16;1727747;82;21066;-78
2021/09/06 11:07:06;;;;;;;3.40;1.90;;;;;;;20.24;41.25;101531.86;1686302;85;21021;-78
2021/09/06 11:09:34;;;;;;;2.90;1.62;;;;;;;20.23;41.07;101532.89;1702886;82;21091;-78
2021/09/06 11:12:06;;;;;;;2.35;1.60;;;;;;;20.28;41.10;101524.19;1712929;82;21068;-78
2021/09/06 11:14:41;;;;;;;3.70;1.52;;;;;;;20.42;41.11;101523.17;1700521;84;21233;-78
2021/09/06 11:17:23;;;;;;;4.40;1.52;;;;;;;20.50;40.87;101521.62;1699804;84;21087;-78
2021/09/06 11:19:51;;;;;;;2.70;1.60;;;;;;;20.28;40.08;101522.32;1702349;83;21028;-78
2021/09/06 11:22:18;;;;;;;5.65;1.50;;;;;;;20.24;39.85;101522.89;1702031;83;21008;-78
2021/09/06 11:24:45;;;;;;;2.30;1.40;;;;;;;20.21;39.58;101515.19;1702273;84;21068;-78